sensor_id;sensor_type;location;lat;lon;timestamp;P1;durP1;ratioP1;P2;durP2;ratioP2
2912;SDS011;1466;48.778;9.166;2023-05-03T00:01:59;20.80;;;7.80;;
2912;SDS011;1466;48.778;9.166;2023-05-03T00:04:26;19.95;;;7.88;;
2912;SDS011;1466;48.778;9.166;2023-05-03T00:06:52;23.27;;;8.57;;
2912;SDS011;1466;48.778;9.166;2023-05-03T00:09:18;18.20;;;7.00;;
2912;SDS011;1466;48.778;9.166;2023-05-03T00:11:45;21.35;;;7.40;;
2912;SDS011;1466;48.778;9.166;2023-05-03T00:14:10;40.10;;;11.63;;
2912;SDS011;1466;48.778;9.166;2023-05-03T00:16:36;21.30;;;7.90;;
2912;SDS011;1466;48.778;9.166;2023-05-03T00:19:02;28.37;;;8.87;;
2912;SDS011;1466;48.778;9.166;2023-05-03T00:21:27;20.83;;;7.50;;
2912;SDS011;1466;48.778;9.166;2023-05-03T00:23:54;22.63;;;7.78;;
2912;SDS011;1466;48.778;9.166;2023-05-03T00:26:19;16.20;;;7.03;;
2912;SDS011;1466;48.778;9.166;2023-05-03T00:28:46;16.27;;;7.43;;
2912;SDS011;1466;48.778;9.166;2023-05-03T00:31:11;17.50;;;7.13;;
2912;SDS011;1466;48.778;9.166;2023-05-03T00:33:37;23.83;;;7.80;;
2912;SDS011;1466;48.778;9.166;2023-05-03T00:36:10;26.52;;;8.65;;
2912;SDS011;1466;48.778;9.166;2023-05-03T00:38:39;16.50;;;7.18;;
2912;SDS011;1466;48.778;9.166;2023-05-03T00:41:06;25.77;;;8.52;;
2912;SDS011;1466;48.778;9.166;2023-05-03T00:43:33;30.40;;;9.15;;
2912;SDS011;1466;48.778;9.166;2023-05-03T00:45:59;22.73;;;8.32;;
2912;SDS011;1466;48.778;9.166;2023-05-03T00:48:27;18.52;;;8.13;;
2912;SDS011;1466;48.778;9.166;2023-05-03T00:50:54;20.45;;;7.10;;
2912;SDS011;1466;48.778;9.166;2023-05-03T00:53:22;15.63;;;6.53;;
2912;SDS011;1466;48.778;9.166;2023-05-03T00:55:48;20.43;;;7.50;;
2912;SDS011;1466;48.778;9.166;2023-05-03T00:58:16;16.10;;;7.10;;
2912;SDS011;1466;48.778;9.166;2023-05-03T01:00:42;19.00;;;7.93;;
2912;SDS011;1466;48.778;9.166;2023-05-03T01:03:08;22.87;;;7.77;;
2912;SDS011;1466;48.778;9.166;2023-05-03T01:05:40;28.10;;;8.90;;
2912;SDS011;1466;48.778;9.166;2023-05-03T01:08:20;20.95;;;8.10;;
2912;SDS011;1466;48.778;9.166;2023-05-03T01:11:17;22.50;;;7.80;;
2912;SDS011;1466;48.778;9.166;2023-05-03T01:13:54;21.08;;;8.07;;
2912;SDS011;1466;48.778;9.166;2023-05-03T01:18:48;25.50;;;9.27;;
2912;SDS011;1466;48.778;9.166;2023-05-03T01:21:16;23.38;;;8.30;;
2912;SDS011;1466;48.778;9.166;2023-05-03T01:26:24;27.65;;;8.85;;
2912;SDS011;1466;48.778;9.166;2023-05-03T01:28:51;21.65;;;8.65;;
2912;SDS011;1466;48.778;9.166;2023-05-03T01:37:00;22.90;;;8.60;;
2912;SDS011;1466;48.778;9.166;2023-05-03T01:39:37;20.70;;;8.02;;
2912;SDS011;1466;48.778;9.166;2023-05-03T01:42:10;23.30;;;7.88;;
2912;SDS011;1466;48.778;9.166;2023-05-03T01:44:36;21.08;;;8.70;;
2912;SDS011;1466;48.778;9.166;2023-05-03T01:47:03;20.20;;;8.35;;
2912;SDS011;1466;48.778;9.166;2023-05-03T01:49:29;24.87;;;8.73;;
2912;SDS011;1466;48.778;9.166;2023-05-03T01:51:54;28.93;;;9.00;;
2912;SDS011;1466;48.778;9.166;2023-05-03T01:54:20;19.30;;;7.53;;
2912;SDS011;1466;48.778;9.166;2023-05-03T01:56:46;21.37;;;8.70;;
2912;SDS011;1466;48.778;9.166;2023-05-03T01:59:11;26.07;;;7.87;;
2912;SDS011;1466;48.778;9.166;2023-05-03T02:01:37;24.63;;;9.00;;
2912;SDS011;1466;48.778;9.166;2023-05-03T02:04:02;17.53;;;7.77;;
2912;SDS011;1466;48.778;9.166;2023-05-03T02:06:28;23.43;;;8.60;;
2912;SDS011;1466;48.778;9.166;2023-05-03T02:08:54;28.83;;;8.97;;
2912;SDS011;1466;48.778;9.166;2023-05-03T02:11:19;19.13;;;7.97;;
2912;SDS011;1466;48.778;9.166;2023-05-03T02:13:47;28.40;;;9.50;;
2912;SDS011;1466;48.778;9.166;2023-05-03T02:16:13;24.15;;;8.82;;
2912;SDS011;1466;48.778;9.166;2023-05-03T02:18:39;19.93;;;8.00;;
2912;SDS011;1466;48.778;9.166;2023-05-03T02:21:05;22.20;;;7.85;;
2912;SDS011;1466;48.778;9.166;2023-05-03T02:23:33;23.70;;;8.27;;
2912;SDS011;1466;48.778;9.166;2023-05-03T02:25:58;25.43;;;9.30;;
2912;SDS011;1466;48.778;9.166;2023-05-03T02:28:24;27.40;;;10.17;;
2912;SDS011;1466;48.778;9.166;2023-05-03T02:30:49;27.53;;;10.03;;
2912;SDS011;1466;48.778;9.166;2023-05-03T02:33:15;23.77;;;8.57;;
2912;SDS011;1466;48.778;9.166;2023-05-03T02:35:41;23.13;;;8.80;;
2912;SDS011;1466;48.778;9.166;2023-05-03T02:38:06;29.40;;;10.23;;
2912;SDS011;1466;48.778;9.166;2023-05-03T02:40:32;21.07;;;9.13;;
2912;SDS011;1466;48.778;9.166;2023-05-03T02:42:58;26.37;;;9.53;;
2912;SDS011;1466;48.778;9.166;2023-05-03T02:45:23;25.87;;;10.10;;
2912;SDS011;1466;48.778;9.166;2023-05-03T02:47:49;28.53;;;10.80;;
2912;SDS011;1466;48.778;9.166;2023-05-03T02:50:14;26.27;;;8.50;;
2912;SDS011;1466;48.778;9.166;2023-05-03T02:52:40;29.63;;;10.00;;
2912;SDS011;1466;48.778;9.166;2023-05-03T02:55:06;21.60;;;9.70;;
2912;SDS011;1466;48.778;9.166;2023-05-03T02:57:32;26.08;;;9.15;;
2912;SDS011;1466;48.778;9.166;2023-05-03T02:59:57;30.70;;;11.50;;
2912;SDS011;1466;48.778;9.166;2023-05-03T03:02:23;21.93;;;9.53;;
2912;SDS011;1466;48.778;9.166;2023-05-03T03:04:49;18.50;;;8.60;;
2912;SDS011;1466;48.778;9.166;2023-05-03T03:07:14;29.60;;;10.70;;
2912;SDS011;1466;48.778;9.166;2023-05-03T03:09:40;22.10;;;9.07;;
2912;SDS011;1466;48.778;9.166;2023-05-03T03:12:05;23.03;;;8.73;;
2912;SDS011;1466;48.778;9.166;2023-05-03T03:14:31;30.23;;;10.80;;
2912;SDS011;1466;48.778;9.166;2023-05-03T03:16:56;24.53;;;9.10;;
2912;SDS011;1466;48.778;9.166;2023-05-03T03:19:22;38.80;;;11.93;;
2912;SDS011;1466;48.778;9.166;2023-05-03T03:21:48;31.63;;;10.83;;
2912;SDS011;1466;48.778;9.166;2023-05-03T03:24:13;25.93;;;10.63;;
2912;SDS011;1466;48.778;9.166;2023-05-03T03:26:39;29.85;;;10.75;;
2912;SDS011;1466;48.778;9.166;2023-05-03T03:29:05;24.10;;;10.00;;
2912;SDS011;1466;48.778;9.166;2023-05-03T03:31:30;29.43;;;10.13;;
2912;SDS011;1466;48.778;9.166;2023-05-03T03:33:56;21.30;;;9.07;;
2912;SDS011;1466;48.778;9.166;2023-05-03T03:36:22;23.90;;;10.23;;
2912;SDS011;1466;48.778;9.166;2023-05-03T03:38:47;27.50;;;10.83;;
2912;SDS011;1466;48.778;9.166;2023-05-03T03:41:13;30.47;;;10.73;;
2912;SDS011;1466;48.778;9.166;2023-05-03T03:43:38;24.73;;;9.73;;
2912;SDS011;1466;48.778;9.166;2023-05-03T03:46:04;25.23;;;10.33;;
2912;SDS011;1466;48.778;9.166;2023-05-03T03:48:29;38.10;;;11.83;;
2912;SDS011;1466;48.778;9.166;2023-05-03T03:50:55;21.07;;;9.30;;
2912;SDS011;1466;48.778;9.166;2023-05-03T03:53:22;24.40;;;10.65;;
2912;SDS011;1466;48.778;9.166;2023-05-03T03:55:48;27.70;;;10.30;;
2912;SDS011;1466;48.778;9.166;2023-05-03T03:58:13;27.67;;;10.90;;
2912;SDS011;1466;48.778;9.166;2023-05-03T04:00:39;26.73;;;9.57;;
2912;SDS011;1466;48.778;9.166;2023-05-03T04:03:04;25.03;;;9.53;;
2912;SDS011;1466;48.778;9.166;2023-05-03T04:05:30;36.13;;;11.30;;
2912;SDS011;1466;48.778;9.166;2023-05-03T04:07:56;43.50;;;12.43;;
2912;SDS011;1466;48.778;9.166;2023-05-03T04:10:22;22.87;;;10.10;;
2912;SDS011;1466;48.778;9.166;2023-05-03T04:12:47;26.67;;;10.50;;
2912;SDS011;1466;48.778;9.166;2023-05-03T04:15:13;30.03;;;10.83;;
2912;SDS011;1466;48.778;9.166;2023-05-03T04:17:39;30.07;;;11.00;;
2912;SDS011;1466;48.778;9.166;2023-05-03T04:20:05;21.13;;;9.30;;
2912;SDS011;1466;48.778;9.166;2023-05-03T04:22:34;29.10;;;11.68;;
2912;SDS011;1466;48.778;9.166;2023-05-03T04:25:01;35.70;;;13.05;;
2912;SDS011;1466;48.778;9.166;2023-05-03T04:27:27;45.73;;;12.57;;
2912;SDS011;1466;48.778;9.166;2023-05-03T04:29:53;40.33;;;13.20;;
2912;SDS011;1466;48.778;9.166;2023-05-03T04:32:18;36.53;;;11.43;;
2912;SDS011;1466;48.778;9.166;2023-05-03T04:34:50;35.42;;;10.25;;
2912;SDS011;1466;48.778;9.166;2023-05-03T04:37:19;34.40;;;11.07;;
2912;SDS011;1466;48.778;9.166;2023-05-03T04:39:46;32.95;;;12.23;;
2912;SDS011;1466;48.778;9.166;2023-05-03T04:42:12;31.05;;;10.80;;
2912;SDS011;1466;48.778;9.166;2023-05-03T04:44:41;24.17;;;8.98;;
2912;SDS011;1466;48.778;9.166;2023-05-03T04:47:07;31.25;;;11.52;;
2912;SDS011;1466;48.778;9.166;2023-05-03T04:49:33;34.00;;;11.60;;
2912;SDS011;1466;48.778;9.166;2023-05-03T04:51:58;23.25;;;9.82;;
2912;SDS011;1466;48.778;9.166;2023-05-03T04:54:24;25.85;;;10.23;;
2912;SDS011;1466;48.778;9.166;2023-05-03T04:56:50;35.13;;;11.43;;
2912;SDS011;1466;48.778;9.166;2023-05-03T04:59:17;36.53;;;12.50;;
2912;SDS011;1466;48.778;9.166;2023-05-03T05:01:42;28.03;;;10.87;;
2912;SDS011;1466;48.778;9.166;2023-05-03T05:04:08;30.93;;;11.83;;
2912;SDS011;1466;48.778;9.166;2023-05-03T05:06:33;28.13;;;10.70;;
2912;SDS011;1466;48.778;9.166;2023-05-03T05:08:59;31.97;;;11.50;;
2912;SDS011;1466;48.778;9.166;2023-05-03T05:11:25;28.37;;;10.63;;
2912;SDS011;1466;48.778;9.166;2023-05-03T05:13:51;40.25;;;13.18;;
2912;SDS011;1466;48.778;9.166;2023-05-03T05:16:16;34.80;;;13.00;;
2912;SDS011;1466;48.778;9.166;2023-05-03T05:18:43;33.38;;;10.70;;
2912;SDS011;1466;48.778;9.166;2023-05-03T05:21:08;30.47;;;12.10;;
2912;SDS011;1466;48.778;9.166;2023-05-03T05:23:34;32.13;;;12.20;;
2912;SDS011;1466;48.778;9.166;2023-05-03T05:26:00;29.23;;;11.40;;
2912;SDS011;1466;48.778;9.166;2023-05-03T05:28:26;37.10;;;12.40;;
2912;SDS011;1466;48.778;9.166;2023-05-03T05:30:52;36.10;;;12.77;;
2912;SDS011;1466;48.778;9.166;2023-05-03T05:33:18;28.00;;;10.30;;
2912;SDS011;1466;48.778;9.166;2023-05-03T05:35:44;28.33;;;11.33;;
2912;SDS011;1466;48.778;9.166;2023-05-03T05:38:11;28.13;;;9.95;;
2912;SDS011;1466;48.778;9.166;2023-05-03T05:40:36;30.60;;;11.27;;
2912;SDS011;1466;48.778;9.166;2023-05-03T05:43:02;38.72;;;11.77;;
2912;SDS011;1466;48.778;9.166;2023-05-03T05:45:28;23.60;;;10.43;;
2912;SDS011;1466;48.778;9.166;2023-05-03T05:47:54;31.08;;;11.05;;
2912;SDS011;1466;48.778;9.166;2023-05-03T05:50:20;30.33;;;11.10;;
2912;SDS011;1466;48.778;9.166;2023-05-03T05:52:46;26.27;;;10.57;;
2912;SDS011;1466;48.778;9.166;2023-05-03T05:55:14;33.72;;;12.70;;
2912;SDS011;1466;48.778;9.166;2023-05-03T05:57:40;32.80;;;11.27;;
2912;SDS011;1466;48.778;9.166;2023-05-03T06:00:06;27.97;;;11.47;;
2912;SDS011;1466;48.778;9.166;2023-05-03T06:02:38;22.98;;;10.75;;
2912;SDS011;1466;48.778;9.166;2023-05-03T06:05:08;30.10;;;10.27;;
2912;SDS011;1466;48.778;9.166;2023-05-03T06:07:34;21.73;;;8.75;;
2912;SDS011;1466;48.778;9.166;2023-05-03T06:09:59;24.13;;;10.50;;
2912;SDS011;1466;48.778;9.166;2023-05-03T06:12:25;22.63;;;10.50;;
2912;SDS011;1466;48.778;9.166;2023-05-03T06:14:51;33.60;;;11.18;;
2912;SDS011;1466;48.778;9.166;2023-05-03T06:17:17;37.23;;;12.63;;
2912;SDS011;1466;48.778;9.166;2023-05-03T06:19:43;36.70;;;12.23;;
2912;SDS011;1466;48.778;9.166;2023-05-03T06:22:08;26.77;;;10.03;;
2912;SDS011;1466;48.778;9.166;2023-05-03T06:24:35;25.83;;;10.93;;
2912;SDS011;1466;48.778;9.166;2023-05-03T06:27:00;26.00;;;11.10;;
2912;SDS011;1466;48.778;9.166;2023-05-03T06:29:26;27.67;;;11.00;;
2912;SDS011;1466;48.778;9.166;2023-05-03T06:31:53;31.23;;;10.85;;
2912;SDS011;1466;48.778;9.166;2023-05-03T06:34:19;30.43;;;11.70;;
2912;SDS011;1466;48.778;9.166;2023-05-03T06:36:45;36.17;;;12.38;;
2912;SDS011;1466;48.778;9.166;2023-05-03T06:39:11;23.15;;;10.27;;
2912;SDS011;1466;48.778;9.166;2023-05-03T06:41:37;22.47;;;10.40;;
2912;SDS011;1466;48.778;9.166;2023-05-03T06:44:03;34.63;;;12.90;;
2912;SDS011;1466;48.778;9.166;2023-05-03T06:46:28;30.67;;;11.20;;
2912;SDS011;1466;48.778;9.166;2023-05-03T06:48:54;27.00;;;12.02;;
2912;SDS011;1466;48.778;9.166;2023-05-03T06:51:24;42.95;;;13.70;;
2912;SDS011;1466;48.778;9.166;2023-05-03T06:53:55;27.42;;;11.57;;
2912;SDS011;1466;48.778;9.166;2023-05-03T06:56:24;43.95;;;13.35;;
2912;SDS011;1466;48.778;9.166;2023-05-03T06:58:51;39.65;;;13.70;;
2912;SDS011;1466;48.778;9.166;2023-05-03T07:01:17;31.17;;;12.55;;
2912;SDS011;1466;48.778;9.166;2023-05-03T07:03:44;34.53;;;13.18;;
2912;SDS011;1466;48.778;9.166;2023-05-03T07:06:10;33.28;;;12.35;;
2912;SDS011;1466;48.778;9.166;2023-05-03T07:08:36;35.50;;;12.70;;
2912;SDS011;1466;48.778;9.166;2023-05-03T07:11:01;46.80;;;12.57;;
2912;SDS011;1466;48.778;9.166;2023-05-03T07:13:28;30.23;;;12.57;;
2912;SDS011;1466;48.778;9.166;2023-05-03T07:15:54;27.87;;;12.60;;
2912;SDS011;1466;48.778;9.166;2023-05-03T07:18:20;33.70;;;12.70;;
2912;SDS011;1466;48.778;9.166;2023-05-03T07:20:45;35.90;;;13.00;;
2912;SDS011;1466;48.778;9.166;2023-05-03T07:23:11;27.10;;;11.17;;
2912;SDS011;1466;48.778;9.166;2023-05-03T07:25:36;27.00;;;10.70;;
2912;SDS011;1466;48.778;9.166;2023-05-03T07:28:03;32.63;;;12.73;;
2912;SDS011;1466;48.778;9.166;2023-05-03T07:30:29;27.53;;;11.87;;
2912;SDS011;1466;48.778;9.166;2023-05-03T07:32:55;27.83;;;10.60;;
2912;SDS011;1466;48.778;9.166;2023-05-03T07:35:20;33.23;;;12.73;;
2912;SDS011;1466;48.778;9.166;2023-05-03T07:37:47;36.00;;;13.65;;
2912;SDS011;1466;48.778;9.166;2023-05-03T07:40:13;33.00;;;11.70;;
2912;SDS011;1466;48.778;9.166;2023-05-03T07:42:38;34.57;;;11.63;;
2912;SDS011;1466;48.778;9.166;2023-05-03T07:45:04;32.60;;;12.33;;
2912;SDS011;1466;48.778;9.166;2023-05-03T07:47:30;29.65;;;12.15;;
2912;SDS011;1466;48.778;9.166;2023-05-03T07:49:57;28.13;;;11.48;;
2912;SDS011;1466;48.778;9.166;2023-05-03T07:52:22;21.43;;;9.90;;
2912;SDS011;1466;48.778;9.166;2023-05-03T07:54:48;27.70;;;10.80;;
2912;SDS011;1466;48.778;9.166;2023-05-03T07:57:14;29.30;;;12.67;;
2912;SDS011;1466;48.778;9.166;2023-05-03T07:59:42;41.50;;;13.50;;
2912;SDS011;1466;48.778;9.166;2023-05-03T08:02:08;29.20;;;10.80;;
2912;SDS011;1466;48.778;9.166;2023-05-03T08:04:34;28.43;;;12.20;;
2912;SDS011;1466;48.778;9.166;2023-05-03T08:07:00;30.58;;;10.50;;
2912;SDS011;1466;48.778;9.166;2023-05-03T08:09:27;20.80;;;9.20;;
2912;SDS011;1466;48.778;9.166;2023-05-03T08:11:53;33.30;;;10.57;;
2912;SDS011;1466;48.778;9.166;2023-05-03T08:14:20;27.02;;;11.82;;
2912;SDS011;1466;48.778;9.166;2023-05-03T08:16:46;25.03;;;11.27;;
2912;SDS011;1466;48.778;9.166;2023-05-03T08:19:11;33.27;;;13.33;;
2912;SDS011;1466;48.778;9.166;2023-05-03T08:21:37;35.47;;;12.83;;
2912;SDS011;1466;48.778;9.166;2023-05-03T08:24:03;29.33;;;11.27;;
2912;SDS011;1466;48.778;9.166;2023-05-03T08:26:30;24.48;;;10.60;;
2912;SDS011;1466;48.778;9.166;2023-05-03T08:28:57;25.77;;;10.70;;
2912;SDS011;1466;48.778;9.166;2023-05-03T08:31:22;30.57;;;11.83;;
2912;SDS011;1466;48.778;9.166;2023-05-03T08:33:48;32.27;;;12.47;;
2912;SDS011;1466;48.778;9.166;2023-05-03T08:36:14;24.98;;;11.18;;
2912;SDS011;1466;48.778;9.166;2023-05-03T08:38:40;25.63;;;9.67;;
2912;SDS011;1466;48.778;9.166;2023-05-03T08:41:25;29.60;;;11.70;;
2912;SDS011;1466;48.778;9.166;2023-05-03T08:43:53;30.13;;;11.70;;
2912;SDS011;1466;48.778;9.166;2023-05-03T08:46:20;32.92;;;12.38;;
2912;SDS011;1466;48.778;9.166;2023-05-03T08:48:46;31.77;;;12.13;;
2912;SDS011;1466;48.778;9.166;2023-05-03T08:51:13;30.95;;;11.60;;
2912;SDS011;1466;48.778;9.166;2023-05-03T08:53:41;26.70;;;11.07;;
2912;SDS011;1466;48.778;9.166;2023-05-03T08:56:10;32.83;;;12.50;;
2912;SDS011;1466;48.778;9.166;2023-05-03T08:58:39;24.30;;;11.40;;
2912;SDS011;1466;48.778;9.166;2023-05-03T09:01:05;24.23;;;10.50;;
2912;SDS011;1466;48.778;9.166;2023-05-03T09:03:33;27.55;;;9.50;;
2912;SDS011;1466;48.778;9.166;2023-05-03T09:05:59;26.67;;;12.02;;
2912;SDS011;1466;48.778;9.166;2023-05-03T09:08:28;27.45;;;12.90;;
2912;SDS011;1466;48.778;9.166;2023-05-03T09:10:54;31.70;;;12.85;;
2912;SDS011;1466;48.778;9.166;2023-05-03T09:13:19;31.93;;;12.77;;
2912;SDS011;1466;48.778;9.166;2023-05-03T09:15:52;30.25;;;11.48;;
2912;SDS011;1466;48.778;9.166;2023-05-03T09:18:18;26.27;;;10.90;;
2912;SDS011;1466;48.778;9.166;2023-05-03T09:20:45;30.52;;;12.25;;
2912;SDS011;1466;48.778;9.166;2023-05-03T09:23:15;35.42;;;10.65;;
2912;SDS011;1466;48.778;9.166;2023-05-03T09:25:47;29.13;;;11.30;;
2912;SDS011;1466;48.778;9.166;2023-05-03T09:28:15;25.50;;;11.00;;
2912;SDS011;1466;48.778;9.166;2023-05-03T09:30:42;27.02;;;10.82;;
2912;SDS011;1466;48.778;9.166;2023-05-03T09:33:08;21.65;;;10.50;;
2912;SDS011;1466;48.778;9.166;2023-05-03T09:35:35;21.13;;;10.25;;
2912;SDS011;1466;48.778;9.166;2023-05-03T09:38:01;28.42;;;12.05;;
2912;SDS011;1466;48.778;9.166;2023-05-03T09:40:27;25.67;;;11.63;;
2912;SDS011;1466;48.778;9.166;2023-05-03T09:43:09;25.43;;;10.87;;
2912;SDS011;1466;48.778;9.166;2023-05-03T09:45:36;24.65;;;10.70;;
2912;SDS011;1466;48.778;9.166;2023-05-03T09:48:03;23.02;;;10.70;;
2912;SDS011;1466;48.778;9.166;2023-05-03T09:50:34;30.63;;;11.63;;
2912;SDS011;1466;48.778;9.166;2023-05-03T09:53:01;28.98;;;11.32;;
2912;SDS011;1466;48.778;9.166;2023-05-03T09:55:38;21.00;;;9.63;;
2912;SDS011;1466;48.778;9.166;2023-05-03T09:58:04;40.83;;;17.00;;
2912;SDS011;1466;48.778;9.166;2023-05-03T10:00:33;31.23;;;15.35;;
2912;SDS011;1466;48.778;9.166;2023-05-03T10:03:10;18.23;;;9.65;;
2912;SDS011;1466;48.778;9.166;2023-05-03T10:05:43;28.63;;;11.65;;
2912;SDS011;1466;48.778;9.166;2023-05-03T10:08:11;20.02;;;9.27;;
2912;SDS011;1466;48.778;9.166;2023-05-03T10:10:43;27.48;;;11.30;;
2912;SDS011;1466;48.778;9.166;2023-05-03T10:13:15;28.27;;;11.45;;
2912;SDS011;1466;48.778;9.166;2023-05-03T10:15:40;25.37;;;10.40;;
2912;SDS011;1466;48.778;9.166;2023-05-03T10:18:07;31.42;;;11.05;;
2912;SDS011;1466;48.778;9.166;2023-05-03T10:20:44;26.02;;;10.30;;
2912;SDS011;1466;48.778;9.166;2023-05-03T10:23:19;24.67;;;9.95;;
2912;SDS011;1466;48.778;9.166;2023-05-03T10:28:29;27.20;;;11.88;;
2912;SDS011;1466;48.778;9.166;2023-05-03T10:30:56;23.98;;;10.18;;
2912;SDS011;1466;48.778;9.166;2023-05-03T10:35:54;31.73;;;11.18;;
2912;SDS011;1466;48.778;9.166;2023-05-03T10:38:25;33.45;;;12.30;;
2912;SDS011;1466;48.778;9.166;2023-05-03T10:40:51;21.80;;;10.40;;
2912;SDS011;1466;48.778;9.166;2023-05-03T10:48:28;20.90;;;9.45;;
2912;SDS011;1466;48.778;9.166;2023-05-03T10:50:55;15.40;;;7.43;;
2912;SDS011;1466;48.778;9.166;2023-05-03T10:56:08;29.83;;;9.98;;
2912;SDS011;1466;48.778;9.166;2023-05-03T11:01:11;26.55;;;9.75;;
2912;SDS011;1466;48.778;9.166;2023-05-03T11:09:06;21.73;;;8.27;;
2912;SDS011;1466;48.778;9.166;2023-05-03T11:11:36;28.92;;;8.57;;
2912;SDS011;1466;48.778;9.166;2023-05-03T11:14:04;17.63;;;8.55;;
2912;SDS011;1466;48.778;9.166;2023-05-03T11:16:30;22.90;;;10.30;;
2912;SDS011;1466;48.778;9.166;2023-05-03T11:18:55;18.73;;;8.73;;
2912;SDS011;1466;48.778;9.166;2023-05-03T11:21:21;25.13;;;9.60;;
2912;SDS011;1466;48.778;9.166;2023-05-03T11:23:47;15.60;;;7.70;;
2912;SDS011;1466;48.778;9.166;2023-05-03T11:26:13;19.40;;;7.73;;
2912;SDS011;1466;48.778;9.166;2023-05-03T11:28:42;20.97;;;8.27;;
2912;SDS011;1466;48.778;9.166;2023-05-03T11:31:09;20.02;;;9.55;;
2912;SDS011;1466;48.778;9.166;2023-05-03T11:33:36;21.08;;;9.73;;
2912;SDS011;1466;48.778;9.166;2023-05-03T11:36:03;31.48;;;10.77;;
2912;SDS011;1466;48.778;9.166;2023-05-03T11:38:30;20.42;;;8.50;;
2912;SDS011;1466;48.778;9.166;2023-05-03T11:40:57;23.00;;;9.25;;
2912;SDS011;1466;48.778;9.166;2023-05-03T11:43:24;43.15;;;11.45;;
2912;SDS011;1466;48.778;9.166;2023-05-03T11:45:50;22.35;;;8.50;;
2912;SDS011;1466;48.778;9.166;2023-05-03T11:48:20;19.65;;;8.80;;
2912;SDS011;1466;48.778;9.166;2023-05-03T11:50:49;21.03;;;8.27;;
2912;SDS011;1466;48.778;9.166;2023-05-03T11:53:19;15.57;;;7.65;;
2912;SDS011;1466;48.778;9.166;2023-05-03T11:55:47;21.05;;;8.45;;
2912;SDS011;1466;48.778;9.166;2023-05-03T12:00:43;21.33;;;9.50;;
2912;SDS011;1466;48.778;9.166;2023-05-03T12:03:15;16.88;;;8.25;;
2912;SDS011;1466;48.778;9.166;2023-05-03T12:05:44;16.90;;;7.93;;
2912;SDS011;1466;48.778;9.166;2023-05-03T12:08:10;20.65;;;9.57;;
2912;SDS011;1466;48.778;9.166;2023-05-03T12:10:36;26.30;;;10.43;;
2912;SDS011;1466;48.778;9.166;2023-05-03T12:13:02;25.70;;;9.63;;
2912;SDS011;1466;48.778;9.166;2023-05-03T12:17:55;25.73;;;9.80;;
2912;SDS011;1466;48.778;9.166;2023-05-03T12:20:23;24.15;;;9.32;;
2912;SDS011;1466;48.778;9.166;2023-05-03T12:22:49;20.75;;;9.00;;
2912;SDS011;1466;48.778;9.166;2023-05-03T12:25:17;21.60;;;8.93;;
2912;SDS011;1466;48.778;9.166;2023-05-03T12:27:43;24.63;;;9.40;;
2912;SDS011;1466;48.778;9.166;2023-05-03T12:30:09;16.43;;;8.33;;
2912;SDS011;1466;48.778;9.166;2023-05-03T12:32:36;25.10;;;9.97;;
2912;SDS011;1466;48.778;9.166;2023-05-03T12:35:05;20.35;;;8.43;;
2912;SDS011;1466;48.778;9.166;2023-05-03T12:37:32;18.52;;;8.57;;
2912;SDS011;1466;48.778;9.166;2023-05-03T12:39:58;26.67;;;8.90;;
2912;SDS011;1466;48.778;9.166;2023-05-03T12:42:25;21.92;;;7.45;;
2912;SDS011;1466;48.778;9.166;2023-05-03T12:44:51;14.50;;;7.50;;
2912;SDS011;1466;48.778;9.166;2023-05-03T12:47:20;14.15;;;7.10;;
2912;SDS011;1466;48.778;9.166;2023-05-03T12:49:46;17.23;;;7.87;;
2912;SDS011;1466;48.778;9.166;2023-05-03T12:52:11;19.17;;;8.50;;
2912;SDS011;1466;48.778;9.166;2023-05-03T12:54:37;26.20;;;9.43;;
2912;SDS011;1466;48.778;9.166;2023-05-03T12:57:03;26.77;;;9.53;;
2912;SDS011;1466;48.778;9.166;2023-05-03T12:59:28;24.53;;;8.27;;
2912;SDS011;1466;48.778;9.166;2023-05-03T13:01:54;23.83;;;8.77;;
2912;SDS011;1466;48.778;9.166;2023-05-03T13:04:20;18.73;;;8.77;;
2912;SDS011;1466;48.778;9.166;2023-05-03T13:06:46;34.90;;;9.50;;
2912;SDS011;1466;48.778;9.166;2023-05-03T13:09:14;19.77;;;8.13;;
2912;SDS011;1466;48.778;9.166;2023-05-03T13:11:43;22.10;;;9.18;;
2912;SDS011;1466;48.778;9.166;2023-05-03T13:14:10;24.47;;;9.03;;
2912;SDS011;1466;48.778;9.166;2023-05-03T13:16:38;19.20;;;7.95;;
2912;SDS011;1466;48.778;9.166;2023-05-03T13:19:06;13.00;;;7.05;;
2912;SDS011;1466;48.778;9.166;2023-05-03T13:21:31;35.33;;;10.87;;
2912;SDS011;1466;48.778;9.166;2023-05-03T13:23:57;18.73;;;7.90;;
2912;SDS011;1466;48.778;9.166;2023-05-03T13:26:23;25.70;;;8.93;;
2912;SDS011;1466;48.778;9.166;2023-05-03T13:28:48;19.07;;;7.67;;
2912;SDS011;1466;48.778;9.166;2023-05-03T13:31:14;15.73;;;7.20;;
2912;SDS011;1466;48.778;9.166;2023-05-03T13:33:40;16.20;;;7.37;;
2912;SDS011;1466;48.778;9.166;2023-05-03T13:36:06;19.97;;;9.67;;
2912;SDS011;1466;48.778;9.166;2023-05-03T13:38:32;16.63;;;7.65;;
2912;SDS011;1466;48.778;9.166;2023-05-03T13:40:59;15.27;;;7.80;;
2912;SDS011;1466;48.778;9.166;2023-05-03T13:43:25;22.50;;;8.60;;
2912;SDS011;1466;48.778;9.166;2023-05-03T13:45:50;22.03;;;8.90;;
2912;SDS011;1466;48.778;9.166;2023-05-03T13:48:19;19.97;;;8.30;;
2912;SDS011;1466;48.778;9.166;2023-05-03T13:50:45;24.60;;;9.20;;
2912;SDS011;1466;48.778;9.166;2023-05-03T13:53:10;19.60;;;7.87;;
2912;SDS011;1466;48.778;9.166;2023-05-03T13:55:36;15.93;;;7.30;;
2912;SDS011;1466;48.778;9.166;2023-05-03T13:58:02;20.67;;;7.73;;
2912;SDS011;1466;48.778;9.166;2023-05-03T14:00:27;28.23;;;9.07;;
2912;SDS011;1466;48.778;9.166;2023-05-03T14:02:53;16.23;;;7.07;;
2912;SDS011;1466;48.778;9.166;2023-05-03T14:05:19;23.77;;;7.90;;
2912;SDS011;1466;48.778;9.166;2023-05-03T14:07:45;28.17;;;9.40;;
2912;SDS011;1466;48.778;9.166;2023-05-03T14:10:10;18.40;;;7.50;;
2912;SDS011;1466;48.778;9.166;2023-05-03T14:12:36;18.17;;;7.53;;
2912;SDS011;1466;48.778;9.166;2023-05-03T14:15:02;24.13;;;7.33;;
2912;SDS011;1466;48.778;9.166;2023-05-03T14:17:28;21.58;;;7.93;;
2912;SDS011;1466;48.778;9.166;2023-05-03T14:19:54;13.90;;;6.80;;
2912;SDS011;1466;48.778;9.166;2023-05-03T14:22:20;24.83;;;8.87;;
2912;SDS011;1466;48.778;9.166;2023-05-03T14:24:45;23.17;;;8.77;;
2912;SDS011;1466;48.778;9.166;2023-05-03T14:27:11;20.53;;;7.23;;
2912;SDS011;1466;48.778;9.166;2023-05-03T14:29:38;15.57;;;7.00;;
2912;SDS011;1466;48.778;9.166;2023-05-03T14:32:03;17.40;;;7.13;;
2912;SDS011;1466;48.778;9.166;2023-05-03T14:34:29;17.87;;;6.23;;
2912;SDS011;1466;48.778;9.166;2023-05-03T14:36:55;23.27;;;8.00;;
2912;SDS011;1466;48.778;9.166;2023-05-03T14:39:21;14.10;;;5.57;;
2912;SDS011;1466;48.778;9.166;2023-05-03T14:41:46;25.07;;;8.80;;
2912;SDS011;1466;48.778;9.166;2023-05-03T14:44:14;16.33;;;6.87;;
2912;SDS011;1466;48.778;9.166;2023-05-03T14:46:39;22.57;;;7.97;;
2912;SDS011;1466;48.778;9.166;2023-05-03T14:49:05;12.47;;;6.63;;
2912;SDS011;1466;48.778;9.166;2023-05-03T14:51:31;22.47;;;8.03;;
2912;SDS011;1466;48.778;9.166;2023-05-03T14:53:57;20.17;;;7.17;;
2912;SDS011;1466;48.778;9.166;2023-05-03T14:56:23;11.10;;;6.27;;
2912;SDS011;1466;48.778;9.166;2023-05-03T14:58:48;16.53;;;6.20;;
2912;SDS011;1466;48.778;9.166;2023-05-03T15:01:18;13.87;;;6.27;;
2912;SDS011;1466;48.778;9.166;2023-05-03T15:03:44;15.53;;;7.30;;
2912;SDS011;1466;48.778;9.166;2023-05-03T15:06:09;11.70;;;5.97;;
2912;SDS011;1466;48.778;9.166;2023-05-03T15:08:35;21.53;;;7.53;;
2912;SDS011;1466;48.778;9.166;2023-05-03T15:11:03;24.97;;;9.13;;
2912;SDS011;1466;48.778;9.166;2023-05-03T15:13:29;21.50;;;7.63;;
2912;SDS011;1466;48.778;9.166;2023-05-03T15:15:55;18.33;;;7.37;;
2912;SDS011;1466;48.778;9.166;2023-05-03T15:18:20;16.37;;;6.87;;
2912;SDS011;1466;48.778;9.166;2023-05-03T15:20:47;11.07;;;6.10;;
2912;SDS011;1466;48.778;9.166;2023-05-03T15:23:12;10.17;;;5.37;;
2912;SDS011;1466;48.778;9.166;2023-05-03T15:25:38;28.17;;;8.00;;
2912;SDS011;1466;48.778;9.166;2023-05-03T15:28:03;80.60;;;17.30;;
2912;SDS011;1466;48.778;9.166;2023-05-03T15:30:29;17.93;;;7.10;;